createdAt,value
2019-02-28T00:02:22.457Z,5.70
2019-02-28T00:04:47.685Z,5.70
2019-02-28T00:07:17.688Z,5.70
2019-02-28T00:09:42.715Z,5.80
2019-02-28T00:12:10.256Z,5.80
2019-02-28T00:14:37.857Z,5.80
2019-02-28T00:17:06.210Z,5.80
2019-02-28T00:19:32.834Z,5.80
2019-02-28T00:21:59.301Z,5.80
2019-02-28T00:24:27.129Z,5.80
2019-02-28T00:26:54.189Z,5.80
2019-02-28T00:29:20.722Z,5.80
2019-02-28T00:31:49.920Z,5.70
2019-02-28T00:34:15.324Z,5.70
2019-02-28T00:36:41.930Z,5.70
2019-02-28T00:39:08.726Z,5.70
2019-02-28T00:41:35.189Z,5.60
2019-02-28T00:44:01.714Z,5.60
2019-02-28T00:46:28.345Z,5.50
2019-02-28T00:48:54.827Z,5.50
2019-02-28T00:51:21.404Z,5.50
2019-02-28T00:53:49.551Z,5.50
2019-02-28T00:56:17.569Z,5.40
2019-02-28T00:58:44.430Z,5.40
2019-02-28T01:01:11.595Z,5.40
2019-02-28T01:03:39.278Z,5.40
2019-02-28T01:06:09.709Z,5.40
2019-02-28T01:08:34.479Z,5.40
2019-02-28T01:11:00.959Z,5.40
2019-02-28T01:13:28.157Z,5.40
2019-02-28T01:15:54.708Z,5.40
2019-02-28T01:18:21.021Z,5.40
2019-02-28T01:20:50.041Z,5.40
2019-02-28T01:23:15.732Z,5.50
2019-02-28T01:25:42.182Z,5.50
2019-02-28T01:28:08.583Z,5.50
2019-02-28T01:30:37.056Z,5.50
2019-02-28T01:33:03.251Z,5.50
2019-02-28T01:35:29.772Z,5.50
2019-02-28T01:37:56.344Z,5.40
2019-02-28T01:40:25.221Z,5.40
2019-02-28T01:42:54.880Z,5.40
2019-02-28T01:45:21.042Z,5.40
2019-02-28T01:47:47.618Z,5.40
2019-02-28T01:50:14.283Z,5.40
2019-02-28T01:52:44.320Z,5.40
2019-02-28T01:55:11.439Z,5.30
2019-02-28T01:57:42.503Z,5.30
2019-02-28T02:00:14.929Z,5.30
2019-02-28T02:02:41.442Z,5.30
2019-02-28T02:05:08.053Z,5.30
2019-02-28T02:07:34.635Z,5.30
2019-02-28T02:10:01.363Z,5.30
2019-02-28T02:12:31.256Z,5.30
2019-02-28T02:14:56.425Z,5.30
2019-02-28T02:17:22.895Z,5.30
2019-02-28T02:19:51.879Z,5.30
2019-02-28T02:22:17.585Z,5.30
2019-02-28T02:24:44.003Z,5.20
2019-02-28T02:27:10.616Z,5.20
2019-02-28T02:29:37.213Z,5.20
2019-02-28T02:32:03.934Z,5.20
2019-02-28T02:34:30.604Z,5.20
2019-02-28T02:36:57.210Z,5.20
2019-02-28T02:39:23.762Z,5.20
2019-02-28T02:41:50.253Z,5.10
2019-02-28T02:44:16.778Z,5.10
2019-02-28T02:46:45.574Z,5.20
2019-02-28T02:49:18.531Z,5.20
2019-02-28T02:51:45.089Z,5.20
2019-02-28T02:54:08.732Z,5.20
2019-02-28T02:56:40.472Z,5.20
2019-02-28T02:59:03.549Z,5.20
2019-02-28T03:01:30.067Z,5.20
2019-02-28T03:03:56.309Z,5.20
2019-02-28T03:06:22.840Z,5.20
2019-02-28T03:08:49.359Z,5.10
2019-02-28T03:11:15.972Z,5.10
2019-02-28T03:13:43.990Z,5.10
2019-02-28T03:16:10.595Z,5.10
2019-02-28T03:18:37.179Z,5.10
2019-02-28T03:21:15.089Z,5.10
2019-02-28T03:23:40.848Z,5.10
2019-02-28T03:26:07.528Z,5.10
2019-02-28T03:28:34.203Z,5.10
2019-02-28T03:31:11.781Z,5.00
2019-02-28T03:33:29.243Z,5.00
2019-02-28T03:35:55.733Z,5.00
2019-02-28T03:38:22.138Z,5.00
2019-02-28T03:40:48.655Z,5.00
2019-02-28T03:43:15.259Z,5.00
2019-02-28T03:45:41.760Z,4.90
2019-02-28T03:48:08.157Z,4.90
2019-02-28T03:50:34.540Z,4.90
2019-02-28T03:53:01.013Z,4.90
2019-02-28T03:55:27.593Z,4.80
2019-02-28T03:57:54.203Z,4.80
2019-02-28T04:00:21.873Z,4.80
2019-02-28T04:02:56.917Z,4.80
2019-02-28T04:05:16.895Z,4.80
2019-02-28T04:07:52.707Z,4.70
2019-02-28T04:10:16.671Z,4.70
2019-02-28T04:12:45.908Z,4.70
2019-02-28T04:15:15.444Z,4.70
2019-02-28T04:17:41.960Z,4.70
2019-02-28T04:20:08.550Z,4.70
2019-02-28T04:22:35.029Z,4.60
2019-02-28T04:25:01.648Z,4.60
2019-02-28T04:27:28.117Z,4.60
2019-02-28T04:29:54.641Z,4.60
2019-02-28T04:32:26.585Z,4.60
2019-02-28T04:34:49.924Z,4.50
2019-02-28T04:37:16.536Z,4.60
2019-02-28T04:39:43.119Z,4.60
2019-02-28T04:42:09.647Z,4.60
2019-02-28T04:44:36.185Z,4.50
2019-02-28T04:47:03.455Z,4.50
2019-02-28T04:49:31.104Z,4.50
2019-02-28T04:51:57.512Z,4.50
2019-02-28T04:54:24.635Z,4.50
2019-02-28T04:56:52.389Z,4.50
2019-02-28T04:59:19.410Z,4.50
2019-02-28T05:01:46.439Z,4.50
2019-02-28T05:04:13.127Z,4.50
2019-02-28T05:06:39.611Z,4.50
2019-02-28T05:09:06.227Z,4.50
2019-02-28T05:11:33.678Z,4.40
2019-02-28T05:14:00.246Z,4.40
2019-02-28T05:16:26.768Z,4.40
2019-02-28T05:18:53.588Z,4.40
2019-02-28T05:21:20.291Z,4.30
2019-02-28T05:23:46.995Z,4.30
2019-02-28T05:26:13.909Z,4.30
2019-02-28T05:28:41.267Z,4.30
2019-02-28T05:31:07.960Z,4.30
2019-02-28T05:33:34.494Z,4.30
2019-02-28T05:36:04.178Z,4.30
2019-02-28T05:38:29.527Z,4.20
2019-02-28T05:40:56.288Z,4.20
2019-02-28T05:43:22.856Z,4.20
2019-02-28T05:45:49.786Z,4.20
2019-02-28T05:48:16.426Z,4.20
2019-02-28T05:50:43.000Z,4.20
2019-02-28T05:53:10.035Z,4.20
2019-02-28T05:55:36.575Z,4.20
2019-02-28T05:58:03.109Z,4.20
2019-02-28T06:00:29.590Z,4.20
2019-02-28T06:02:58.131Z,4.20
2019-02-28T06:05:24.389Z,4.20
2019-02-28T06:07:51.005Z,4.20
2019-02-28T06:10:23.527Z,4.20
2019-02-28T06:12:46.080Z,4.20
2019-02-28T06:15:13.888Z,4.20
2019-02-28T06:17:40.589Z,4.20
2019-02-28T06:20:09.524Z,4.20
2019-02-28T06:22:36.378Z,4.20
2019-02-28T06:25:04.936Z,4.20
2019-02-28T06:27:40.925Z,4.20
2019-02-28T06:29:59.787Z,4.20
2019-02-28T06:32:27.374Z,4.20
2019-02-28T06:34:53.828Z,4.20
2019-02-28T06:37:20.306Z,4.20
2019-02-28T06:39:46.752Z,4.30
2019-02-28T06:42:13.586Z,4.30
2019-02-28T06:44:40.285Z,4.30
2019-02-28T06:47:06.988Z,4.30
2019-02-28T06:49:33.418Z,4.40
2019-02-28T06:52:00.014Z,4.40
2019-02-28T06:54:26.558Z,4.40
2019-02-28T06:56:54.378Z,4.40
2019-02-28T06:59:23.118Z,4.50
2019-02-28T07:01:49.726Z,4.50
2019-02-28T07:04:16.320Z,4.50
2019-02-28T07:06:42.992Z,4.50
2019-02-28T07:09:09.788Z,4.60
2019-02-28T07:11:36.257Z,4.60
2019-02-28T07:14:02.844Z,4.60
2019-02-28T07:16:30.702Z,4.60
2019-02-28T07:18:57.869Z,4.70
2019-02-28T07:21:24.292Z,4.70
2019-02-28T07:23:50.907Z,4.70
2019-02-28T07:26:18.796Z,4.80
2019-02-28T07:28:46.212Z,4.80
2019-02-28T07:31:12.700Z,4.80
2019-02-28T07:33:41.306Z,4.90
2019-02-28T07:36:09.636Z,4.90
2019-02-28T07:38:35.586Z,4.90
2019-02-28T07:41:02.258Z,5.00
2019-02-28T07:43:28.860Z,5.00
2019-02-28T07:45:55.471Z,5.10
2019-02-28T07:48:26.849Z,5.20
2019-02-28T07:50:50.441Z,5.20
2019-02-28T07:53:16.918Z,5.30
2019-02-28T07:55:43.465Z,5.30
2019-02-28T07:58:10.222Z,5.30
2019-02-28T08:00:36.694Z,5.40
2019-02-28T08:03:03.188Z,5.40
2019-02-28T08:05:31.023Z,5.40
2019-02-28T08:07:57.702Z,5.50
2019-02-28T08:10:28.713Z,5.60
2019-02-28T08:12:55.345Z,5.70
2019-02-28T08:15:23.175Z,5.80
2019-02-28T08:17:50.736Z,5.80
2019-02-28T08:20:18.144Z,5.80
2019-02-28T08:22:44.729Z,5.80
2019-02-28T08:25:13.147Z,5.80
2019-02-28T08:27:39.694Z,5.90
2019-02-28T08:30:19.540Z,6.00
2019-02-28T08:32:47.206Z,6.00
2019-02-28T08:35:14.238Z,6.10
2019-02-28T08:37:41.086Z,6.10
2019-02-28T08:40:15.599Z,6.10
2019-02-28T08:42:41.719Z,6.10
2019-02-28T08:45:12.226Z,6.20
2019-02-28T08:47:38.816Z,6.20
2019-02-28T08:50:23.418Z,6.20
2019-02-28T08:52:51.526Z,6.30
2019-02-28T08:55:27.713Z,6.40
2019-02-28T08:57:54.454Z,6.40
2019-02-28T09:00:18.518Z,6.40
2019-02-28T09:02:45.022Z,6.50
2019-02-28T09:05:12.196Z,6.50
2019-02-28T09:07:38.750Z,6.60
2019-02-28T09:10:11.738Z,6.60
2019-02-28T09:12:37.499Z,6.60
2019-02-28T09:15:06.254Z,6.60
2019-02-28T09:17:32.844Z,6.80
2019-02-28T09:19:59.388Z,6.80
2019-02-28T09:22:27.346Z,6.80
2019-02-28T09:24:53.980Z,6.90
2019-02-28T09:27:20.359Z,6.90
2019-02-28T09:29:46.874Z,6.90
2019-02-28T09:32:13.588Z,6.90
2019-02-28T09:34:41.340Z,6.90
2019-02-28T09:37:07.846Z,7.00
2019-02-28T09:39:34.325Z,6.90
2019-02-28T09:42:00.807Z,7.00
2019-02-28T09:44:27.415Z,7.00
2019-02-28T09:46:54.141Z,7.10
2019-02-28T09:49:20.645Z,7.00
2019-02-28T09:51:47.007Z,7.00
2019-02-28T09:54:13.843Z,7.00
2019-02-28T09:56:41.152Z,7.00
2019-02-28T09:59:08.601Z,6.80
2019-02-28T10:01:35.158Z,6.90
2019-02-28T10:04:01.705Z,6.90
2019-02-28T10:06:28.622Z,7.10
2019-02-28T10:08:55.210Z,7.10
2019-02-28T10:11:21.926Z,7.10
2019-02-28T10:13:49.581Z,6.90
2019-02-28T10:16:16.982Z,6.80
2019-02-28T10:18:44.051Z,6.80
2019-02-28T10:21:10.639Z,6.80
2019-02-28T10:23:37.389Z,6.80
2019-02-28T10:26:05.418Z,6.90
2019-02-28T10:28:31.829Z,6.90
2019-02-28T10:30:58.506Z,6.80
2019-02-28T10:33:24.923Z,6.80
2019-02-28T10:35:51.531Z,6.80
2019-02-28T10:38:17.978Z,6.80
2019-02-28T10:40:44.506Z,6.80
2019-02-28T10:43:12.106Z,6.90
2019-02-28T10:45:42.004Z,6.90
2019-02-28T10:48:07.658Z,6.90
2019-02-28T10:50:36.076Z,6.90
2019-02-28T10:53:05.476Z,6.90
2019-02-28T10:55:31.215Z,6.80
2019-02-28T10:57:57.808Z,6.90
2019-02-28T11:00:33.889Z,6.90
2019-02-28T11:03:00.981Z,7.00
2019-02-28T11:05:35.029Z,6.90
2019-02-28T11:08:02.776Z,6.90
2019-02-28T11:10:34.940Z,7.00
2019-02-28T11:12:59.666Z,7.10
2019-02-28T11:15:26.296Z,7.20
2019-02-28T11:17:52.815Z,7.00
2019-02-28T11:20:22.408Z,6.90
2019-02-28T11:22:48.678Z,6.90
2019-02-28T11:25:16.543Z,6.80
2019-02-28T11:27:43.105Z,6.70
2019-02-28T11:30:26.619Z,6.60
2019-02-28T11:32:53.790Z,6.70
2019-02-28T11:35:23.270Z,6.70
2019-02-28T11:37:49.048Z,6.90
2019-02-28T11:40:20.777Z,6.70
2019-02-28T11:42:47.455Z,6.70
2019-02-28T11:45:22.026Z,6.60
2019-02-28T11:47:49.181Z,6.50
2019-02-28T11:50:15.799Z,6.40
2019-02-28T11:52:42.282Z,6.50
2019-02-28T11:55:11.082Z,6.50
2019-02-28T11:57:41.037Z,6.60
2019-02-28T12:00:25.188Z,6.60
2019-02-28T12:02:53.467Z,6.50
2019-02-28T12:05:19.889Z,6.50
2019-02-28T12:07:46.369Z,6.60
2019-02-28T12:10:12.866Z,6.60
2019-02-28T12:12:41.553Z,6.60
2019-02-28T12:15:10.543Z,6.60
2019-02-28T12:17:37.046Z,6.40
2019-02-28T12:20:06.811Z,6.50
2019-02-28T12:22:33.311Z,6.60
2019-02-28T12:24:59.781Z,6.60
2019-02-28T12:27:27.571Z,6.50
2019-02-28T12:29:54.588Z,6.40
2019-02-28T12:32:21.085Z,6.40
2019-02-28T12:34:47.654Z,6.40
2019-02-28T12:37:14.119Z,6.30
2019-02-28T12:39:40.414Z,6.40
2019-02-28T12:42:07.063Z,6.30
2019-02-28T12:44:33.454Z,6.00
2019-02-28T12:46:59.953Z,6.00
2019-02-28T12:49:27.656Z,6.00
2019-02-28T12:51:54.313Z,6.00
2019-02-28T12:54:20.729Z,5.90
2019-02-28T12:56:47.856Z,6.00
2019-02-28T12:59:15.150Z,6.10
2019-02-28T13:01:41.624Z,6.30
2019-02-28T13:04:08.072Z,6.50
2019-02-28T13:06:34.655Z,6.90
2019-02-28T13:09:01.130Z,7.00
2019-02-28T13:11:27.649Z,6.40
2019-02-28T13:13:54.153Z,6.50
2019-02-28T13:16:21.403Z,6.60
2019-02-28T13:18:48.027Z,6.40
2019-02-28T13:21:14.620Z,6.20
2019-02-28T13:23:41.256Z,6.00
2019-02-28T13:26:07.733Z,5.80
2019-02-28T13:28:34.049Z,5.80
2019-02-28T13:31:00.467Z,6.10
2019-02-28T13:33:26.874Z,6.00
2019-02-28T13:35:53.336Z,6.10
2019-02-28T13:38:20.065Z,6.00
2019-02-28T13:40:46.853Z,5.90
2019-02-28T13:43:19.672Z,5.80
2019-02-28T13:45:41.846Z,5.80
2019-02-28T13:48:09.861Z,5.80
2019-02-28T13:50:36.543Z,5.80
2019-02-28T13:53:16.893Z,5.70
2019-02-28T13:55:32.103Z,5.90
2019-02-28T13:57:58.601Z,5.90
2019-02-28T14:00:29.139Z,6.00
2019-02-28T14:03:09.673Z,6.00
2019-02-28T14:05:40.883Z,6.00
2019-02-28T14:08:09.558Z,6.10
2019-02-28T14:10:33.556Z,6.10
2019-02-28T14:13:01.352Z,5.90
2019-02-28T14:15:42.074Z,5.40
2019-02-28T14:18:10.878Z,5.30
2019-02-28T14:20:37.001Z,5.30
2019-02-28T14:23:03.562Z,5.30
2019-02-28T14:25:30.019Z,5.20
2019-02-28T14:27:59.855Z,5.10
2019-02-28T14:30:25.575Z,5.00
2019-02-28T14:32:52.146Z,4.70
2019-02-28T14:35:26.907Z,4.60
2019-02-28T14:37:55.638Z,4.60
2019-02-28T14:40:21.778Z,4.60
2019-02-28T14:42:48.359Z,4.60
2019-02-28T14:45:16.947Z,4.50
2019-02-28T14:47:43.622Z,4.40
2019-02-28T14:50:11.710Z,4.50
2019-02-28T14:52:40.392Z,4.30
2019-02-28T14:55:11.881Z,4.40
2019-02-28T14:57:38.450Z,4.40
2019-02-28T15:00:11.082Z,4.30
2019-02-28T15:02:37.721Z,4.20
2019-02-28T15:05:08.784Z,4.00
2019-02-28T15:07:38.465Z,3.90
2019-02-28T15:10:09.581Z,4.00
2019-02-28T15:12:36.221Z,4.00
2019-02-28T15:15:05.492Z,4.10
2019-02-28T15:17:31.989Z,3.90
2019-02-28T15:19:58.568Z,3.90
2019-02-28T15:22:25.082Z,3.70
2019-02-28T15:24:51.684Z,3.80
2019-02-28T15:27:18.454Z,3.90
2019-02-28T15:29:44.953Z,3.80
2019-02-28T15:32:14.216Z,3.90
2019-02-28T15:34:41.282Z,3.70
2019-02-28T15:37:08.056Z,3.80
2019-02-28T15:39:34.561Z,3.70
2019-02-28T15:42:01.148Z,3.60
2019-02-28T15:44:29.307Z,3.70
2019-02-28T15:46:56.233Z,3.40
2019-02-28T15:49:22.691Z,3.50
2019-02-28T15:51:49.327Z,3.50
2019-02-28T15:54:15.867Z,3.30
2019-02-28T15:56:42.446Z,3.20
2019-02-28T15:59:11.545Z,3.00
2019-02-28T16:01:37.761Z,3.00
2019-02-28T16:04:04.121Z,3.00
2019-02-28T16:06:30.592Z,2.90
2019-02-28T16:08:57.166Z,2.90
2019-02-28T16:11:23.722Z,2.90
2019-02-28T16:13:50.185Z,2.80
2019-02-28T16:16:16.737Z,2.70
2019-02-28T16:18:43.993Z,2.70
2019-02-28T16:21:11.687Z,2.70
2019-02-28T16:23:38.266Z,2.80
2019-02-28T16:26:04.998Z,2.80
2019-02-28T16:28:31.494Z,2.70
2019-02-28T16:30:57.842Z,2.50
2019-02-28T16:33:24.749Z,2.40
2019-02-28T16:35:52.002Z,2.40
2019-02-28T16:38:18.462Z,2.50
2019-02-28T16:40:44.942Z,2.40
2019-02-28T16:43:11.347Z,2.30
2019-02-28T16:45:45.371Z,2.50
2019-02-28T16:48:11.730Z,2.50
2019-02-28T16:50:38.243Z,2.40
2019-02-28T16:53:06.123Z,2.20
2019-02-28T16:55:32.744Z,2.30
2019-02-28T16:57:59.318Z,2.20
2019-02-28T17:00:26.265Z,2.30
2019-02-28T17:02:52.854Z,2.30
2019-02-28T17:05:19.346Z,2.20
2019-02-28T17:07:45.880Z,2.20
2019-02-28T17:10:19.074Z,2.10
2019-02-28T17:12:50.056Z,2.10
2019-02-28T17:15:19.641Z,2.10
2019-02-28T17:17:48.779Z,2.00
2019-02-28T17:20:15.174Z,2.00
2019-02-28T17:22:41.662Z,2.00
2019-02-28T17:25:09.350Z,1.80
2019-02-28T17:27:38.664Z,1.90
2019-02-28T17:30:14.025Z,1.70
2019-02-28T17:32:40.506Z,1.70
2019-02-28T17:35:07.715Z,1.70
2019-02-28T17:37:34.301Z,1.60
2019-02-28T17:40:00.773Z,1.60
2019-02-28T17:42:27.778Z,1.40
2019-02-28T17:44:57.637Z,1.40
2019-02-28T17:47:44.554Z,1.50
2019-02-28T17:50:27.506Z,1.60
2019-02-28T17:53:10.228Z,1.50
2019-02-28T17:55:53.301Z,1.30
2019-02-28T17:58:50.840Z,1.10
2019-02-28T18:01:30.026Z,1.20
2019-02-28T18:04:03.365Z,1.20
2019-02-28T18:06:48.214Z,1.20
2019-02-28T18:09:27.199Z,1.10
2019-02-28T18:12:15.283Z,1.10
2019-02-28T18:14:51.182Z,1.10
2019-02-28T18:17:45.230Z,1.10
2019-02-28T18:20:25.862Z,1.10
2019-02-28T18:22:58.821Z,1.10
2019-02-28T18:25:37.820Z,0.90
2019-02-28T18:28:18.808Z,0.90
2019-02-28T18:31:03.426Z,0.80
2019-02-28T18:33:29.837Z,0.90
2019-02-28T18:35:56.458Z,0.70
2019-02-28T18:38:22.952Z,0.70
2019-02-28T18:40:49.337Z,0.50
2019-02-28T18:43:15.724Z,0.60
2019-02-28T18:45:42.240Z,0.60
2019-02-28T18:48:08.704Z,0.60
2019-02-28T18:50:35.310Z,0.40
2019-02-28T18:53:01.728Z,0.40
2019-02-28T18:55:34.618Z,0.40
2019-02-28T18:57:56.607Z,0.30
2019-02-28T19:00:23.335Z,0.30
2019-02-28T19:02:49.690Z,0.30
2019-02-28T19:05:16.162Z,0.30
2019-02-28T19:07:42.775Z,0.00
2019-02-28T19:10:09.665Z,0.10
2019-02-28T19:12:36.128Z,0.10
2019-02-28T19:15:08.294Z,0.20
2019-02-28T19:17:34.652Z,0.10
2019-02-28T19:20:01.141Z,-0.10
2019-02-28T19:22:27.658Z,0.00
2019-02-28T19:24:54.217Z,-0.10
2019-02-28T19:27:20.734Z,0.00
2019-02-28T19:29:47.237Z,0.00
2019-02-28T19:32:13.642Z,0.00
2019-02-28T19:34:40.130Z,-0.10
2019-02-28T19:37:06.646Z,-0.10
2019-02-28T19:39:33.146Z,-0.10
2019-02-28T19:41:59.561Z,-0.10
2019-02-28T19:44:26.233Z,-0.20
2019-02-28T19:46:52.649Z,-0.30
2019-02-28T19:49:19.051Z,-0.30
2019-02-28T19:51:45.643Z,-0.20
2019-02-28T19:54:11.953Z,-0.30
2019-02-28T19:56:38.607Z,-0.30
2019-02-28T19:59:05.274Z,-0.30
2019-02-28T20:01:31.771Z,-0.20
2019-02-28T20:03:58.304Z,-0.20
2019-02-28T20:06:24.966Z,-0.20
2019-02-28T20:08:51.549Z,-0.10
2019-02-28T20:11:18.022Z,-0.10
2019-02-28T20:13:44.428Z,0.00
2019-02-28T20:16:10.917Z,-0.10
2019-02-28T20:18:37.399Z,-0.10
2019-02-28T20:21:04.194Z,-0.10
2019-02-28T20:23:30.769Z,-0.10
2019-02-28T20:25:57.305Z,-0.10
2019-02-28T20:28:23.856Z,-0.10
2019-02-28T20:30:50.486Z,0.00
2019-02-28T20:33:17.009Z,0.00
2019-02-28T20:35:43.671Z,-0.10
2019-02-28T20:38:10.253Z,0.00
2019-02-28T20:40:37.187Z,0.00
2019-02-28T20:43:03.796Z,0.00
2019-02-28T20:45:30.427Z,0.00
2019-02-28T20:47:57.656Z,0.00
2019-02-28T20:50:33.049Z,0.00
2019-02-28T20:52:59.645Z,-0.10
2019-02-28T20:55:26.128Z,-0.10
2019-02-28T20:57:52.853Z,0.00
2019-02-28T21:00:21.256Z,0.00
2019-02-28T21:02:47.743Z,0.00
2019-02-28T21:05:14.284Z,-0.10
2019-02-28T21:07:40.944Z,-0.20
2019-02-28T21:10:08.171Z,-0.20
2019-02-28T21:12:34.701Z,-0.20
2019-02-28T21:15:01.805Z,-0.20
2019-02-28T21:17:30.216Z,-0.30
2019-02-28T21:19:56.703Z,-0.30
2019-02-28T21:22:23.271Z,-0.30
2019-02-28T21:24:49.749Z,-0.30
2019-02-28T21:27:16.162Z,-0.40
2019-02-28T21:29:42.452Z,-0.40
2019-02-28T21:32:08.944Z,-0.30
2019-02-28T21:34:35.322Z,-0.40
2019-02-28T21:37:01.823Z,-0.50
2019-02-28T21:39:28.324Z,-0.50
2019-02-28T21:41:54.835Z,-0.40
2019-02-28T21:44:21.226Z,-0.40
2019-02-28T21:46:47.750Z,-0.50
2019-02-28T21:49:14.346Z,-0.50
2019-02-28T21:51:40.802Z,-0.50
2019-02-28T21:54:07.342Z,-0.60
2019-02-28T21:56:33.809Z,-0.50
2019-02-28T21:59:00.339Z,-0.50
2019-02-28T22:01:26.716Z,-0.50
2019-02-28T22:03:53.179Z,-0.40
2019-02-28T22:06:19.681Z,-0.50
2019-02-28T22:08:46.308Z,-0.50
2019-02-28T22:11:12.702Z,-0.50
2019-02-28T22:13:39.272Z,-0.60
2019-02-28T22:16:05.933Z,-0.60
2019-02-28T22:18:32.295Z,-0.60
2019-02-28T22:20:58.702Z,-0.60
2019-02-28T22:23:25.242Z,-0.50
2019-02-28T22:25:51.599Z,-0.60
2019-02-28T22:28:18.129Z,-0.50
2019-02-28T22:30:46.522Z,-0.50
2019-02-28T22:33:14.929Z,-0.50
2019-02-28T22:35:46.219Z,-0.50
2019-02-28T22:38:12.728Z,-0.50
2019-02-28T22:40:39.288Z,-0.50
2019-02-28T22:43:05.811Z,-0.50
2019-02-28T22:45:32.314Z,-0.40
2019-02-28T22:47:58.824Z,-0.40
2019-02-28T22:50:25.378Z,-0.40
2019-02-28T22:52:52.427Z,-0.50
2019-02-28T22:55:19.057Z,-0.50
2019-02-28T22:57:45.458Z,-0.50
2019-02-28T23:00:29.347Z,-0.50
2019-02-28T23:02:55.838Z,-0.60
2019-02-28T23:05:22.454Z,-0.70
2019-02-28T23:07:48.946Z,-0.70
2019-02-28T23:10:15.361Z,-0.70
2019-02-28T23:12:41.648Z,-0.70
2019-02-28T23:15:08.154Z,-0.70
2019-02-28T23:17:34.551Z,-0.70
2019-02-28T23:20:01.041Z,-0.70
2019-02-28T23:22:27.338Z,-0.70
2019-02-28T23:24:53.777Z,-0.70
2019-02-28T23:27:20.301Z,-0.70
2019-02-28T23:29:50.414Z,-0.70
2019-02-28T23:32:32.373Z,-0.70
2019-02-28T23:34:58.840Z,-0.70
2019-02-28T23:37:25.446Z,-0.80
2019-02-28T23:39:51.830Z,-0.80
2019-02-28T23:42:18.467Z,-0.70
2019-02-28T23:44:44.728Z,-0.70
2019-02-28T23:47:11.276Z,-0.70
2019-02-28T23:49:37.843Z,-0.80
2019-02-28T23:52:04.492Z,-0.70
2019-02-28T23:54:30.964Z,-0.60
2019-02-28T23:56:57.542Z,-0.60
2019-02-28T23:59:24.018Z,-0.60
